createdAt,value
2018-02-04T00:00:00.192Z,100710.05
2018-02-04T00:00:23.794Z,100719.72
2018-02-04T00:00:47.253Z,100721.09
2018-02-04T00:01:10.991Z,100716.30
2018-02-04T00:01:34.762Z,100724.69
2018-02-04T00:01:58.799Z,100725.61
2018-02-04T00:02:22.844Z,100727.45
2018-02-04T00:02:46.618Z,100720.03
2018-02-04T00:03:09.992Z,100720.50
2018-02-04T00:03:33.920Z,100724.05
2018-02-04T00:03:57.696Z,100725.47
2018-02-04T00:04:21.147Z,100727.70
2018-02-04T00:04:44.912Z,100725.50
2018-02-04T00:05:08.710Z,100731.22
2018-02-04T00:05:32.514Z,100725.97
2018-02-04T00:05:56.576Z,100733.42
2018-02-04T00:06:20.442Z,100731.65
2018-02-04T00:06:44.496Z,100732.08
2018-02-04T00:07:08.265Z,100722.88
2018-02-04T00:07:31.713Z,100729.48
2018-02-04T00:07:55.522Z,100731.22
2018-02-04T00:08:19.274Z,100731.26
2018-02-04T00:08:43.296Z,100736.05
2018-02-04T00:09:07.367Z,100733.00
2018-02-04T00:09:31.102Z,100731.26
2018-02-04T00:09:54.586Z,100735.59
2018-02-04T00:10:18.333Z,100735.20
2018-02-04T00:10:42.109Z,100737.83
2018-02-04T00:11:06.143Z,100733.84
2018-02-04T00:11:29.896Z,100737.36
2018-02-04T00:11:53.409Z,100732.57
2018-02-04T00:12:17.158Z,100738.32
2018-02-04T00:12:40.949Z,100733.10
2018-02-04T00:13:05.056Z,100737.55
2018-02-04T00:13:28.828Z,100737.58
2018-02-04T00:13:52.861Z,100735.05
2018-02-04T00:14:16.958Z,100740.38
2018-02-04T00:14:40.715Z,100743.97
2018-02-04T00:15:04.747Z,100742.69
2018-02-04T00:15:28.963Z,100741.41
2018-02-04T00:15:52.728Z,100742.76
2018-02-04T00:16:16.171Z,100744.60
2018-02-04T00:16:39.904Z,100738.53
2018-02-04T00:17:03.646Z,100743.00
2018-02-04T00:17:27.478Z,100748.29
2018-02-04T00:17:50.817Z,100747.47
2018-02-04T00:18:14.587Z,100745.37
2018-02-04T00:18:38.028Z,100749.78
2018-02-04T00:19:01.829Z,100749.81
2018-02-04T00:19:25.645Z,100749.42
2018-02-04T00:19:49.391Z,100751.27
2018-02-04T00:20:13.145Z,100750.38
2018-02-04T00:20:36.606Z,100754.78
2018-02-04T00:21:00.374Z,100747.32
2018-02-04T00:21:24.127Z,100755.20
2018-02-04T00:21:48.186Z,100749.98
2018-02-04T00:22:11.528Z,100758.33
2018-02-04T00:22:39.404Z,100753.08
2018-02-04T00:23:03.169Z,100760.10
2018-02-04T00:23:26.990Z,100753.08
2018-02-04T00:23:51.010Z,100751.83
2018-02-04T00:24:15.027Z,100754.53
2018-02-04T00:24:38.800Z,100760.70
2018-02-04T00:25:02.662Z,100751.55
2018-02-04T00:25:26.404Z,100759.06
2018-02-04T00:25:50.167Z,100756.83
2018-02-04T00:26:13.927Z,100759.88
2018-02-04T00:26:37.704Z,100761.20
2018-02-04T00:27:01.725Z,100767.30
2018-02-04T00:27:25.868Z,100759.45
2018-02-04T00:27:49.631Z,100762.48
2018-02-04T00:28:13.720Z,100763.36
2018-02-04T00:28:37.528Z,100763.83
2018-02-04T00:29:01.629Z,100766.94
2018-02-04T00:29:25.379Z,100767.83
2018-02-04T00:29:48.836Z,100763.47
2018-02-04T00:30:12.587Z,100770.45
2018-02-04T00:30:35.983Z,100771.34
2018-02-04T00:30:59.737Z,100770.92
2018-02-04T00:31:23.460Z,100773.13
2018-02-04T00:31:47.243Z,100777.09
2018-02-04T00:32:11.115Z,100769.74
2018-02-04T00:32:34.850Z,100773.69
2018-02-04T00:32:58.625Z,100770.62
2018-02-04T00:33:22.464Z,100766.72
2018-02-04T00:33:46.226Z,100781.17
2018-02-04T00:34:10.002Z,100779.43
2018-02-04T00:34:33.451Z,100776.80
2018-02-04T00:34:57.193Z,100773.78
2018-02-04T00:35:20.944Z,100778.19
2018-02-04T00:35:44.467Z,100779.56
2018-02-04T00:36:08.255Z,100778.32
2018-02-04T00:36:32.181Z,100781.45
2018-02-04T00:36:55.934Z,100779.77
2018-02-04T00:37:20.031Z,100785.52
2018-02-04T00:37:43.766Z,100779.48
2018-02-04T00:38:07.039Z,100794.84
2018-02-04T00:38:30.780Z,100785.72
2018-02-04T00:38:54.910Z,100783.20
2018-02-04T00:39:18.664Z,100788.98
2018-02-04T00:39:42.735Z,100788.22
2018-02-04T00:40:06.740Z,100783.47
2018-02-04T00:40:30.532Z,100793.22
2018-02-04T00:40:54.036Z,100791.61
2018-02-04T00:41:17.823Z,100792.63
2018-02-04T00:41:41.573Z,100790.14
2018-02-04T00:42:05.631Z,100790.27
2018-02-04T00:42:29.399Z,100789.98
2018-02-04T00:42:53.314Z,100791.88
2018-02-04T00:43:16.875Z,100799.46
2018-02-04T00:43:40.606Z,100791.23
2018-02-04T00:44:04.411Z,100799.59
2018-02-04T00:44:28.164Z,100797.50
2018-02-04T00:44:51.653Z,100793.16
2018-02-04T00:45:15.447Z,100795.79
2018-02-04T00:45:38.535Z,100788.44
2018-02-04T00:46:02.310Z,100790.54
2018-02-04T00:46:26.124Z,100800.19
2018-02-04T00:46:50.174Z,100801.92
2018-02-04T00:47:13.992Z,100798.88
2018-02-04T00:47:38.003Z,100802.34
2018-02-04T00:48:02.040Z,100799.69
2018-02-04T00:48:25.496Z,100805.34
2018-02-04T00:48:49.260Z,100804.91
2018-02-04T00:49:13.071Z,100808.42
2018-02-04T00:49:36.807Z,100809.27
2018-02-04T00:50:00.831Z,100805.80
2018-02-04T00:50:24.866Z,100811.05
2018-02-04T00:50:48.600Z,100813.67
2018-02-04T00:51:12.323Z,100812.78
2018-02-04T00:51:36.125Z,100811.90
2018-02-04T00:51:59.871Z,100814.52
2018-02-04T00:52:23.620Z,100812.33
2018-02-04T00:52:47.660Z,100811.41
2018-02-04T00:53:11.495Z,100811.83
2018-02-04T00:53:35.567Z,100808.75
2018-02-04T00:53:59.032Z,100808.72
2018-02-04T00:54:22.793Z,100811.77
2018-02-04T00:54:46.570Z,100824.00
2018-02-04T00:55:10.355Z,100810.45
2018-02-04T00:55:34.399Z,100815.67
2018-02-04T00:55:58.217Z,100810.45
2018-02-04T00:56:21.699Z,100815.70
2018-02-04T00:56:45.443Z,100816.59
2018-02-04T00:57:09.199Z,100815.31
2018-02-04T00:57:33.205Z,100811.80
2018-02-04T00:57:57.228Z,100817.58
2018-02-04T00:58:20.793Z,100824.53
2018-02-04T00:58:44.519Z,100817.15
2018-02-04T00:59:08.077Z,100814.52
2018-02-04T00:59:31.536Z,100816.30
2018-02-04T00:59:55.264Z,100819.38
2018-02-04T01:00:19.036Z,100820.30
2018-02-04T01:00:42.816Z,100819.94
2018-02-04T01:01:06.832Z,100810.84
2018-02-04T01:01:30.955Z,100821.77
2018-02-04T01:01:54.707Z,100814.81
2018-02-04T01:02:18.744Z,100821.91
2018-02-04T01:02:42.777Z,100820.66
2018-02-04T01:03:06.507Z,100824.59
2018-02-04T01:03:30.241Z,100824.16
2018-02-04T01:03:54.056Z,100826.36
2018-02-04T01:04:17.793Z,100820.23
2018-02-04T01:04:41.601Z,100819.41
2018-02-04T01:05:05.188Z,100821.64
2018-02-04T01:05:28.955Z,100826.49
2018-02-04T01:05:52.687Z,100823.08
2018-02-04T01:06:16.424Z,100825.31
2018-02-04T01:06:40.483Z,100829.70
2018-02-04T01:07:04.235Z,100822.75
2018-02-04T01:07:27.747Z,100831.08
2018-02-04T01:07:51.489Z,100830.20
2018-02-04T01:08:15.228Z,100832.36
2018-02-04T01:08:39.233Z,100827.11
2018-02-04T01:09:03.075Z,100825.80
2018-02-04T01:09:26.561Z,100833.64
2018-02-04T01:09:50.346Z,100830.16
2018-02-04T01:10:14.137Z,100841.97
2018-02-04T01:10:37.404Z,100832.39
2018-02-04T01:11:00.966Z,100839.44
2018-02-04T01:11:25.042Z,100835.44
2018-02-04T01:11:48.871Z,100838.95
2018-02-04T01:12:12.323Z,100839.38
2018-02-04T01:12:36.126Z,100837.64
2018-02-04T01:12:59.172Z,100846.36
2018-02-04T01:13:22.912Z,100841.64
2018-02-04T01:13:46.688Z,100846.46
2018-02-04T01:14:09.504Z,100850.40
2018-02-04T01:14:33.232Z,100842.13
2018-02-04T01:14:57.013Z,100848.69
2018-02-04T01:15:20.772Z,100852.20
2018-02-04T01:15:44.634Z,100850.13
2018-02-04T01:16:08.291Z,100851.48
2018-02-04T01:16:32.044Z,100851.97
2018-02-04T01:16:55.767Z,100848.98
2018-02-04T01:17:19.507Z,100849.89
2018-02-04T01:17:43.559Z,100849.08
2018-02-04T01:18:07.377Z,100853.44
2018-02-04T01:18:31.380Z,100853.89
2018-02-04T01:18:55.506Z,100856.91
2018-02-04T01:19:19.313Z,100855.14
2018-02-04T01:19:43.331Z,100867.77
2018-02-04T01:20:06.154Z,100859.38
2018-02-04T01:20:29.605Z,100862.83
2018-02-04T01:20:53.341Z,100858.34
2018-02-04T01:21:17.171Z,100863.09
2018-02-04T01:21:41.193Z,100863.88
2018-02-04T01:22:04.948Z,100862.11
2018-02-04T01:22:28.971Z,100865.16
2018-02-04T01:22:53.018Z,100860.34
2018-02-04T01:23:16.682Z,100857.26
2018-02-04T01:23:40.486Z,100858.54
2018-02-04T01:24:04.224Z,100858.97
2018-02-04T01:24:28.045Z,100859.33
2018-02-04T01:24:51.802Z,100860.21
2018-02-04T01:25:15.847Z,100865.43
2018-02-04T01:25:39.855Z,100864.52
2018-02-04T01:26:03.683Z,100864.52
2018-02-04T01:26:27.704Z,100863.17
2018-02-04T01:26:51.727Z,100867.11
2018-02-04T01:27:15.472Z,100865.80
2018-02-04T01:27:39.259Z,100862.31
2018-02-04T01:28:02.799Z,100866.68
2018-02-04T01:28:26.537Z,100867.53
2018-02-04T01:28:50.619Z,100865.37
2018-02-04T01:29:14.455Z,100857.98
2018-02-04T01:29:38.524Z,100869.83
2018-02-04T01:30:02.339Z,100872.02
2018-02-04T01:30:26.440Z,100871.69
2018-02-04T01:30:50.237Z,100876.12
2018-02-04T01:31:14.322Z,100873.56
2018-02-04T01:31:38.099Z,100872.70
2018-02-04T01:32:01.537Z,100879.30
2018-02-04T01:32:25.323Z,100871.45
2018-02-04T01:32:49.071Z,100874.53
2018-02-04T01:33:13.112Z,100878.05
2018-02-04T01:33:37.135Z,100872.86
2018-02-04T01:34:00.878Z,100875.48
2018-02-04T01:34:24.319Z,100886.41
2018-02-04T01:34:48.051Z,100882.05
2018-02-04T01:35:11.832Z,100882.48
2018-02-04T01:35:35.902Z,100885.55
2018-02-04T02:19:48.096Z,100922.61
2018-02-04T02:20:11.908Z,100921.75
2018-02-04T02:20:35.671Z,100918.77
2018-02-04T02:20:59.473Z,100928.86
2018-02-04T02:21:23.492Z,100927.12
2018-02-04T02:21:47.523Z,100917.97
2018-02-04T02:22:11.085Z,100920.63
2018-02-04T02:22:34.191Z,100920.65
2018-02-04T02:22:57.931Z,100928.09
2018-02-04T02:23:21.716Z,100926.36
2018-02-04T02:23:45.449Z,100928.16
2018-02-04T02:24:09.185Z,100922.91
2018-02-04T02:24:32.747Z,100926.41
2018-02-04T02:24:56.520Z,100928.16
2018-02-04T02:25:20.295Z,100927.27
2018-02-04T02:25:44.113Z,100924.16
2018-02-04T02:26:08.137Z,100926.75
2018-02-04T02:26:31.880Z,100923.73
2018-02-04T02:26:55.331Z,100931.14
2018-02-04T02:27:19.141Z,100926.72
2018-02-04T02:27:42.897Z,100934.12
2018-02-04T02:28:06.955Z,100933.67
2018-02-04T02:28:30.711Z,100930.56
2018-02-04T02:28:54.170Z,100932.70
2018-02-04T02:29:17.899Z,100931.36
2018-02-04T02:29:41.635Z,100931.76
2018-02-04T02:30:05.712Z,100932.98
2018-02-04T02:30:29.469Z,100934.72
2018-02-04T02:30:53.190Z,100932.92
2018-02-04T02:31:16.985Z,100935.42
2018-02-04T02:31:40.765Z,100939.75
2018-02-04T02:32:04.561Z,100933.09
2018-02-04T02:32:28.315Z,100934.35
2018-02-04T02:32:51.810Z,100932.09
2018-02-04T02:33:15.539Z,100932.03
2018-02-04T02:33:39.289Z,100938.07
2018-02-04T02:34:03.307Z,100934.98
2018-02-04T02:34:26.756Z,100937.59
2018-02-04T02:34:50.493Z,100938.86
2018-02-04T02:35:14.284Z,100937.59
2018-02-04T02:35:38.070Z,100941.48
2018-02-04T02:36:01.421Z,100944.54
2018-02-04T02:36:25.187Z,100939.27
2018-02-04T02:36:48.955Z,100940.61
2018-02-04T02:37:13.002Z,100945.00
2018-02-04T02:37:36.743Z,100938.89
2018-02-04T02:38:00.462Z,100941.95
2018-02-04T02:38:24.210Z,100930.62
2018-02-04T02:38:47.980Z,100947.25
2018-02-04T02:39:11.782Z,100945.13
2018-02-04T02:39:35.797Z,100951.28
2018-02-04T02:39:59.539Z,100944.75
2018-02-04T02:40:22.995Z,100952.66
2018-02-04T02:40:46.804Z,100948.35
2018-02-04T02:41:10.589Z,100948.44
2018-02-04T02:41:34.618Z,100943.77
2018-02-04T02:41:57.704Z,100947.38
2018-02-04T02:42:21.449Z,100943.13
2018-02-04T02:42:45.503Z,100947.55
2018-02-04T02:43:09.346Z,100951.97
2018-02-04T02:43:33.376Z,100949.84
2018-02-04T02:43:56.827Z,100952.03
2018-02-04T02:44:20.557Z,100948.98
2018-02-04T02:44:44.279Z,100947.22
2018-02-04T02:45:08.086Z,100949.84
2018-02-04T02:45:32.141Z,100954.17
2018-02-04T02:45:56.169Z,100958.92
2018-02-04T02:46:19.611Z,100949.29
2018-02-04T02:46:43.371Z,100950.52
2018-02-04T02:47:06.479Z,100950.48
2018-02-04T02:47:30.259Z,100952.19
2018-02-04T02:47:54.067Z,100950.88
2018-02-04T02:48:17.799Z,100956.00
2018-02-04T02:48:41.257Z,100958.63
2018-02-04T02:49:04.997Z,100956.38
2018-02-04T02:49:28.742Z,100956.73
2018-02-04T02:49:52.798Z,100959.76
2018-02-04T02:50:16.643Z,100957.11
2018-02-04T02:50:40.737Z,100962.78
2018-02-04T02:51:04.511Z,100957.96
2018-02-04T02:51:27.989Z,100960.58
2018-02-04T02:51:51.756Z,100959.20
2018-02-04T02:52:15.313Z,100960.06
2018-02-04T02:52:38.396Z,100964.42
2018-02-04T02:53:02.278Z,100966.59
2018-02-04T02:53:26.012Z,100969.64
2018-02-04T02:53:49.753Z,100966.16
2018-02-04T02:54:13.569Z,100972.75
2018-02-04T02:54:37.339Z,100968.87
2018-02-04T02:55:00.820Z,100968.02
2018-02-04T02:55:24.584Z,100968.91
2018-02-04T02:55:48.351Z,100971.11
2018-02-04T02:56:11.974Z,100969.77
2018-02-04T02:56:36.667Z,100972.75
2018-02-04T02:57:00.469Z,100974.49
2018-02-04T02:57:24.221Z,100975.31
2018-02-04T02:57:47.993Z,100974.44
2018-02-04T02:58:12.028Z,100972.23
2018-02-04T02:58:35.794Z,100976.17
2018-02-04T02:58:59.244Z,100975.66
2018-02-04T02:59:22.977Z,100980.02
2018-02-04T02:59:46.719Z,100983.06
2018-02-04T03:00:10.751Z,100976.94
2018-02-04T03:00:34.783Z,100986.09
2018-02-04T03:00:58.608Z,100984.32
2018-02-04T03:01:22.067Z,100978.64
2018-02-04T03:01:45.913Z,100985.56
2018-02-04T03:02:08.971Z,100987.70
2018-02-04T03:02:32.707Z,100980.69
2018-02-04T03:02:56.468Z,100983.28
2018-02-04T03:03:20.504Z,100983.28
2018-02-04T03:03:44.533Z,100988.10
2018-02-04T03:04:08.324Z,100986.36
2018-02-04T03:04:32.356Z,100985.51
2018-02-04T03:04:56.439Z,100991.19
2018-02-04T03:05:20.199Z,100991.61
2018-02-04T03:05:43.685Z,100993.37
2018-02-04T03:06:07.537Z,100993.35
2018-02-04T03:06:31.279Z,100993.35
2018-02-04T03:06:55.053Z,100999.48
2018-02-04T03:07:19.123Z,100998.56
2018-02-04T03:07:43.163Z,100995.09
2018-02-04T03:08:06.903Z,100999.45
2018-02-04T03:08:30.416Z,100998.56
2018-02-04T03:08:54.219Z,101002.50
2018-02-04T03:09:17.771Z,101000.27
2018-02-04T03:09:41.252Z,100992.01
2018-02-04T03:10:04.323Z,100997.71
2018-02-04T03:10:28.111Z,100996.83
2018-02-04T03:10:51.889Z,101006.47
2018-02-04T03:11:15.665Z,101000.36
2018-02-04T03:11:39.679Z,100999.97
2018-02-04T03:12:03.795Z,101003.11
2018-02-04T03:12:27.546Z,100994.84
2018-02-04T03:12:51.627Z,101005.39
2018-02-04T03:13:15.424Z,101003.72
2018-02-04T03:13:38.880Z,101004.20
2018-02-04T03:14:02.624Z,101002.48
2018-02-04T03:14:26.375Z,101000.02
2018-02-04T03:14:50.396Z,101004.07
2018-02-04T03:15:14.441Z,101008.48
2018-02-04T03:15:38.222Z,101002.02
2018-02-04T03:16:02.242Z,101000.73
2018-02-04T03:16:26.357Z,101003.88
2018-02-04T03:16:50.103Z,101006.98
2018-02-04T03:17:13.552Z,101007.47
2018-02-04T03:17:37.342Z,101005.80
2018-02-04T03:18:01.134Z,101007.14
2018-02-04T03:18:24.950Z,101009.33
2018-02-04T03:18:48.409Z,101016.31
2018-02-04T03:19:12.180Z,101012.41
2018-02-04T03:19:35.927Z,101012.44
2018-02-04T03:20:00.164Z,101014.17
2018-02-04T03:20:23.901Z,101018.56
2018-02-04T03:20:47.640Z,101017.23
2018-02-04T03:21:11.139Z,101018.54
2018-02-04T03:21:34.924Z,101013.27
2018-02-04T03:21:58.672Z,101012.81
2018-02-04T03:22:22.723Z,101017.59
2018-02-04T03:22:46.465Z,101020.16
2018-02-04T03:23:10.009Z,101017.11
2018-02-04T03:23:33.766Z,101019.34
2018-02-04T03:23:57.573Z,101014.98
2018-02-04T03:24:21.315Z,101019.82
2018-02-04T03:24:44.763Z,101019.84
2018-02-04T03:25:08.321Z,101019.05
2018-02-04T03:25:32.399Z,101012.12
2018-02-04T03:25:56.136Z,101013.92
2018-02-04T03:26:19.865Z,101024.05
2018-02-04T03:26:43.627Z,101021.48
2018-02-04T03:27:07.411Z,101018.49
2018-02-04T03:27:31.228Z,101020.26
2018-02-04T03:27:55.016Z,101020.28
2018-02-04T03:28:19.372Z,101022.48
2018-02-04T03:28:43.164Z,101018.12
2018-02-04T03:29:06.983Z,101021.62
2018-02-04T03:29:31.007Z,101022.53
2018-02-04T03:29:54.647Z,101011.25
2018-02-04T03:30:18.403Z,101020.45
2018-02-04T03:30:42.148Z,101015.70
2018-02-04T03:31:05.890Z,101022.77
2018-02-04T03:31:29.637Z,101019.30
2018-02-04T03:31:53.118Z,101017.55
2018-02-04T03:32:17.026Z,101018.01
2018-02-04T03:32:40.782Z,101021.48
2018-02-04T03:33:04.355Z,101024.53
2018-02-04T03:33:28.216Z,101024.51
2018-02-04T03:33:51.747Z,101025.82
2018-02-04T03:34:15.476Z,101020.12
2018-02-04T03:34:39.235Z,101035.34
2018-02-04T03:35:02.720Z,101027.44
2018-02-04T03:35:26.464Z,101030.03
2018-02-04T03:35:50.236Z,101026.95
2018-02-04T03:36:14.253Z,101030.37
2018-02-04T03:36:38.048Z,101024.67
2018-02-04T03:37:01.590Z,101032.05
2018-02-04T03:37:25.358Z,101025.05
2018-02-04T03:37:49.258Z,101032.91
2018-02-04T03:38:12.991Z,101028.89
2018-02-04T03:38:37.084Z,101025.38
2018-02-04T03:39:00.891Z,101029.29
2018-02-04T03:39:24.955Z,101031.48
2018-02-04T03:39:48.718Z,101032.77
2018-02-04T03:40:12.169Z,101039.27
2018-02-04T03:40:35.901Z,101034.02
2018-02-04T03:40:59.649Z,101037.06
2018-02-04T03:41:23.665Z,101035.27
2018-02-04T03:41:47.731Z,101038.72
2018-02-04T03:42:11.488Z,101038.30
2018-02-04T03:42:34.947Z,101044.77
2018-02-04T03:42:58.682Z,101043.02
2018-02-04T03:43:22.427Z,101038.64
2018-02-04T03:43:46.440Z,101040.77
2018-02-04T03:44:10.477Z,101042.08
2018-02-04T03:44:34.587Z,101045.08
2018-02-04T03:44:58.320Z,101052.06
2018-02-04T03:45:22.363Z,101047.23
2018-02-04T03:45:46.110Z,101049.41
2018-02-04T03:46:09.625Z,101050.69
2018-02-04T03:46:33.347Z,101051.12
2018-02-04T03:46:57.095Z,101054.20
2018-02-04T03:47:21.155Z,101048.07
2018-02-04T03:47:44.534Z,101057.67
2018-02-04T03:48:08.332Z,101053.74
2018-02-04T03:48:32.111Z,101055.53
2018-02-04T03:48:55.887Z,101058.62
2018-02-04T03:49:20.004Z,101056.51
2018-02-04T03:49:43.760Z,101056.11
2018-02-04T03:50:07.803Z,101060.07
2018-02-04T03:50:31.822Z,101058.84
2018-02-04T03:50:55.645Z,101059.30
2018-02-04T03:51:19.696Z,101058.02
2018-02-04T03:51:43.146Z,101060.73
2018-02-04T03:52:06.887Z,101060.33
2018-02-04T03:52:30.709Z,101064.30
2018-02-04T03:52:54.491Z,101067.37
2018-02-04T03:53:18.563Z,101061.27
2018-02-04T03:53:42.324Z,101065.69
2018-02-04T03:54:05.815Z,101062.16
2018-02-04T03:54:29.564Z,101068.80
2018-02-04T03:54:53.305Z,101071.45
2018-02-04T03:55:17.331Z,101068.91
2018-02-04T03:55:41.091Z,101069.84
2018-02-04T03:56:04.583Z,101075.13
2018-02-04T03:56:28.311Z,101065.20
2018-02-04T03:56:52.063Z,101072.73
2018-02-04T03:57:16.123Z,101074.06
2018-02-04T03:57:40.122Z,101084.20
2018-02-04T03:58:03.872Z,101076.83
2018-02-04T03:58:27.432Z,101076.40
2018-02-04T03:58:50.922Z,101079.48
2018-02-04T03:59:14.948Z,101082.09
2018-02-04T03:59:38.403Z,101080.36
2018-02-04T04:00:02.220Z,101079.93
2018-02-04T04:00:26.012Z,101087.34
2018-02-04T04:00:49.059Z,101083.84
2018-02-04T04:01:12.791Z,101086.45
2018-02-04T04:01:36.573Z,101080.76
2018-02-04T04:02:00.018Z,101085.58
2018-02-04T04:02:23.890Z,101087.34
2018-02-04T04:02:47.672Z,101084.72
2018-02-04T04:03:11.319Z,101081.64
2018-02-04T04:03:34.907Z,101084.23
2018-02-04T04:03:58.663Z,101085.13
2018-02-04T04:04:22.460Z,101085.58
2018-02-04T04:04:45.985Z,101094.75
2018-02-04T04:05:09.757Z,101090.81
2018-02-04T04:05:33.486Z,101090.42
2018-02-04T04:05:57.232Z,101089.56
2018-02-04T04:06:21.306Z,101097.05
2018-02-04T04:06:45.098Z,101099.30
2018-02-04T04:07:08.644Z,101094.17
2018-02-04T04:07:32.383Z,101094.20
2018-02-04T04:07:56.127Z,101094.71
2018-02-04T04:08:19.867Z,101092.58
2018-02-04T04:08:42.628Z,101091.29
2018-02-04T04:09:06.361Z,101097.50
2018-02-04T04:09:29.814Z,101101.00
2018-02-04T04:09:53.279Z,101101.86
2018-02-04T04:10:16.383Z,101095.76
2018-02-04T04:10:40.201Z,101101.45
2018-02-04T04:11:03.956Z,101104.05
2018-02-04T04:11:27.713Z,101103.59
2018-02-04T04:11:51.758Z,101106.59
2018-02-04T04:12:15.556Z,101102.20
2018-02-04T04:12:39.711Z,101104.82
2018-02-04T04:13:03.488Z,101105.25
2018-02-04T04:13:27.576Z,101111.32
2018-02-04T04:13:51.319Z,101112.58
2018-02-04T04:14:14.830Z,101106.88
2018-02-04T04:14:38.663Z,101107.73
2018-02-04T04:15:01.782Z,101110.35
2018-02-04T04:15:25.383Z,101106.42
2018-02-04T04:15:49.161Z,101112.12
2018-02-04T04:16:13.174Z,101113.48
2018-02-04T04:16:37.252Z,101111.34
2018-02-04T04:17:01.016Z,101111.83
2018-02-04T04:17:25.089Z,101104.05
2018-02-04T04:17:48.545Z,101108.89
2018-02-04T04:18:12.358Z,101111.54
2018-02-04T04:18:36.113Z,101108.55
2018-02-04T04:18:59.855Z,101112.05
2018-02-04T04:19:23.979Z,101113.84
2018-02-04T04:19:47.727Z,101115.61
2018-02-04T04:20:11.982Z,101114.32
2018-02-04T04:20:35.762Z,101114.32
2018-02-04T04:20:59.820Z,101120.05
2018-02-04T04:21:23.563Z,101113.98
2018-02-04T04:21:47.644Z,101116.17
2018-02-04T04:22:11.734Z,101117.05
2018-02-04T04:22:35.566Z,101120.12
2018-02-04T04:22:59.663Z,101120.12
2018-02-04T04:23:23.488Z,101121.06
2018-02-04T04:23:47.562Z,101119.33
2018-02-04T04:24:11.313Z,101120.69
2018-02-04T04:24:35.339Z,101119.84
2018-02-04T04:24:59.363Z,101113.34
2018-02-04T04:25:23.127Z,101119.89
2018-02-04T04:25:46.225Z,101113.80
2018-02-04T04:26:10.399Z,101111.63
2018-02-04T04:26:34.131Z,101119.49
2018-02-04T04:26:58.164Z,101122.99
2018-02-04T04:27:21.940Z,101124.30
2018-02-04T04:27:45.426Z,101124.30
2018-02-04T04:28:09.167Z,101127.35
2018-02-04T04:28:32.943Z,101128.69
2018-02-04T04:28:56.953Z,101131.31
2018-02-04T04:29:20.691Z,101130.08
2018-02-04T04:29:44.172Z,101125.23
2018-02-04T04:30:07.935Z,101128.77
2018-02-04T04:30:31.749Z,101131.39
2018-02-04T04:30:55.789Z,101123.10
2018-02-04T04:31:18.843Z,101129.17
2018-02-04T04:31:42.638Z,101137.45
2018-02-04T04:32:06.090Z,101132.70
2018-02-04T04:32:29.833Z,101129.66
2018-02-04T04:32:53.606Z,101133.16
2018-02-04T04:33:17.357Z,101129.68
2018-02-04T04:33:40.871Z,101137.16
2018-02-04T04:34:04.614Z,101135.03
2018-02-04T04:34:28.383Z,101134.59
2018-02-04T04:34:51.423Z,101135.05
2018-02-04T04:35:15.161Z,101137.65
2018-02-04T04:35:39.197Z,101140.30
2018-02-04T04:36:03.227Z,101138.55
2018-02-04T04:36:26.969Z,101150.38
2018-02-04T04:36:50.409Z,101139.89
2018-02-04T04:37:14.187Z,101144.73
2018-02-04T04:37:37.571Z,101141.67
2018-02-04T04:38:01.333Z,101142.62
2018-02-04T04:38:25.075Z,101145.23
2018-02-04T04:38:48.830Z,101147.88
2018-02-04T04:39:12.182Z,101140.91
2018-02-04T04:39:35.982Z,101143.52
2018-02-04T04:39:59.850Z,101147.91
2018-02-04T04:40:23.599Z,101145.27
2018-02-04T04:40:47.048Z,101146.14
2018-02-04T04:41:10.805Z,101148.34
2018-02-04T04:41:34.532Z,101152.27
2018-02-04T04:41:58.558Z,101144.00
2018-02-04T04:42:22.383Z,101145.80
2018-02-04T04:42:46.440Z,101150.64
2018-02-04T04:43:10.467Z,101154.14
2018-02-04T04:43:33.505Z,101152.40
2018-02-04T04:43:57.295Z,101150.23
2018-02-04T04:44:21.304Z,101152.85
2018-02-04T04:44:45.050Z,101152.88
2018-02-04T04:45:08.535Z,101151.63
2018-02-04T04:45:32.283Z,101152.51
2018-02-04T04:45:56.052Z,101156.03
2018-02-04T04:46:20.057Z,101157.80
2018-02-04T04:46:44.126Z,101154.38
2018-02-04T04:47:07.883Z,101152.66
2018-02-04T04:47:31.907Z,101160.55
2018-02-04T04:47:55.924Z,101154.45
2018-02-04T04:48:19.662Z,101160.12
2018-02-04T04:48:43.422Z,101152.77
2018-02-04T04:49:07.166Z,101161.94
2018-02-04T04:49:30.904Z,101161.53
2018-02-04T04:49:54.642Z,101160.67
2018-02-04T04:50:18.665Z,101162.95
2018-02-04T04:50:42.399Z,101161.64
2018-02-04T04:51:06.155Z,101162.52
2018-02-04T04:51:29.898Z,101164.71
2018-02-04T04:51:53.457Z,101162.55
2018-02-04T04:52:17.224Z,101159.52
2018-02-04T04:52:40.949Z,101167.01
2018-02-04T04:53:04.351Z,101164.86
2018-02-04T04:53:28.366Z,101168.81
2018-02-04T04:53:52.119Z,101162.30
2018-02-04T04:54:15.677Z,101169.75
2018-02-04T04:54:39.455Z,101168.02
2018-02-04T04:55:03.173Z,101171.54
2018-02-04T04:55:26.896Z,101172.87
2018-02-04T04:55:50.614Z,101160.69
2018-02-04T04:56:14.336Z,101165.13
2018-02-04T04:56:37.876Z,101162.98
2018-02-04T04:57:01.767Z,101169.53
2018-02-04T04:57:25.238Z,101176.93
2018-02-04T04:57:48.995Z,101173.86
2018-02-04T04:58:12.749Z,101174.31
2018-02-04T04:58:36.781Z,101173.41
2018-02-04T04:59:00.514Z,101165.13
2018-02-04T04:59:24.304Z,101176.45
2018-02-04T04:59:47.884Z,101174.29
2018-02-04T05:00:11.431Z,101173.84
2018-02-04T05:00:34.884Z,101177.77
2018-02-04T05:00:58.639Z,101176.88
2018-02-04T05:01:22.364Z,101179.02
2018-02-04T05:01:46.390Z,101179.45
2018-02-04T05:02:09.827Z,101174.69
2018-02-04T05:02:33.269Z,101181.70
2018-02-04T05:02:57.268Z,101177.34
2018-02-04T05:03:20.550Z,101176.50
2018-02-04T05:03:44.351Z,101173.91
2018-02-04T05:04:08.084Z,101175.73
2018-02-04T05:04:32.023Z,101174.02
2018-02-04T05:04:56.105Z,101175.32
2018-02-04T05:05:19.876Z,101174.03
2018-02-04T05:05:43.900Z,101179.78
2018-02-04T05:06:07.990Z,101177.16
2018-02-04T05:06:31.787Z,101182.42
2018-02-04T05:06:55.787Z,101183.75
2018-02-04T05:07:19.807Z,101178.59
2018-02-04T05:07:43.535Z,101181.64
2018-02-04T05:08:07.063Z,101186.91
2018-02-04T05:08:30.792Z,101180.36
2018-02-04T05:08:54.524Z,101186.02
2018-02-04T05:09:18.661Z,101183.84
2018-02-04T05:09:42.419Z,101188.59
2018-02-04T05:10:06.428Z,101181.64
2018-02-04T05:10:30.470Z,101192.02
2018-02-04T05:10:54.211Z,101185.92
2018-02-04T05:11:17.651Z,101190.73
2018-02-04T05:11:41.594Z,101188.11
2018-02-04T05:12:05.368Z,101192.04
2018-02-04T05:12:29.147Z,101195.11
2018-02-04T05:12:53.164Z,101196.45
2018-02-04T05:13:17.171Z,101192.57
2018-02-04T05:13:40.938Z,101194.31
2018-02-04T05:14:04.372Z,101193.00
2018-02-04T05:14:28.157Z,101197.83
2018-02-04T05:14:51.901Z,101203.91